Time;durP1;ratioP1;P1;durP2;ratioP2;P2;SDS_P1;SDS_P2;PMS_P1;PMS_P2;Temp;Humidity;BMP_temperature;BMP_pressure;BME280_temperature;BME280_humidity;BME280_pressure;Samples;Min_cycle;Max_cycle;Signal;HPM_P1;HPM_P2
2023/08/31 00:00:10;;;;;;;3.60;3.60;;;12.30;99.90;;;;;;4970306;28;20553;-68
2023/08/31 00:02:36;;;;;;;3.50;3.50;;;12.30;99.90;;;;;;4970402;28;20459;-68
2023/08/31 00:05:04;;;;;;;3.60;3.60;;;12.30;99.90;;;;;;4969927;28;20463;-67
2023/08/31 00:07:32;;;;;;;3.20;3.20;;;12.20;99.90;;;;;;4966319;28;20482;-67
2023/08/31 00:10:08;;;;;;;3.57;3.57;;;12.20;99.90;;;;;;4970526;28;20532;-68
2023/08/31 00:12:37;;;;;;;3.10;3.10;;;12.10;99.90;;;;;;4962566;28;20589;-69
2023/08/31 00:15:05;;;;;;;3.77;3.77;;;12.10;99.90;;;;;;4968884;28;20882;-67
2023/08/31 00:17:32;;;;;;;3.20;3.20;;;12.00;99.90;;;;;;4966467;28;20851;-67
2023/08/31 00:19:59;;;;;;;3.20;3.20;;;12.00;99.90;;;;;;4969571;28;20884;-68
2023/08/31 00:22:26;;;;;;;3.07;3.07;;;12.00;99.90;;;;;;4962479;28;20943;-68
2023/08/31 00:24:54;;;;;;;3.30;3.30;;;12.00;99.90;;;;;;4970376;28;20461;-68
2023/08/31 00:27:22;;;;;;;3.30;3.30;;;11.90;99.90;;;;;;4968085;28;20482;-67
2023/08/31 00:29:50;;;;;;;3.20;3.20;;;11.90;99.90;;;;;;4970233;28;20479;-69
2023/08/31 00:32:18;;;;;;;3.13;3.13;;;11.80;99.90;;;;;;4964321;28;20566;-69
2023/08/31 00:34:46;;;;;;;3.20;3.20;;;11.70;99.90;;;;;;4964728;28;20562;-67
2023/08/31 00:37:14;;;;;;;3.03;3.03;;;11.70;99.90;;;;;;4968309;28;20466;-69
2023/08/31 00:39:41;;;;;;;3.57;3.57;;;11.70;99.90;;;;;;4970708;28;20471;-69
2023/08/31 00:42:09;;;;;;;3.63;3.63;;;11.70;99.90;;;;;;4969062;28;20466;-68
2023/08/31 00:44:37;;;;;;;3.67;3.67;;;11.60;99.90;;;;;;4967677;28;20999;-69
2023/08/31 00:47:04;;;;;;;3.07;3.07;;;11.60;99.90;;;;;;4967407;28;20476;-67
2023/08/31 00:49:31;;;;;;;3.00;3.00;;;11.60;99.90;;;;;;4966639;28;20958;-68
2023/08/31 00:51:57;;;;;;;3.43;3.43;;;11.50;99.90;;;;;;4957711;28;20475;-67
2023/08/31 00:54:24;;;;;;;3.40;3.40;;;11.50;99.90;;;;;;4975822;28;20490;-68
2023/08/31 00:56:54;;;;;;;3.60;3.60;;;11.60;99.90;;;;;;4967402;28;20477;-67
2023/08/31 00:59:21;;;;;;;3.17;3.17;;;11.50;99.90;;;;;;4970503;28;20895;-66
2023/08/31 01:01:58;;;;;;;2.60;2.60;;;11.50;99.90;;;;;;4958825;28;20471;-69
2023/08/31 01:04:34;;;;;;;3.10;3.10;;;11.50;99.90;;;;;;4968910;28;20464;-67
2023/08/31 01:07:09;;;;;;;3.10;3.10;;;11.50;99.90;;;;;;4969103;28;20889;-67
2023/08/31 01:09:41;;;;;;;2.97;2.97;;;11.50;99.90;;;;;;4967171;28;20488;-68
2023/08/31 01:12:11;;;;;;;2.80;2.80;;;11.40;99.90;;;;;;4967779;28;20468;-67
2023/08/31 01:14:43;;;;;;;3.40;3.40;;;11.40;99.90;;;;;;4969701;28;20954;-67
2023/08/31 01:17:17;;;;;;;3.03;3.03;;;11.30;99.90;;;;;;4970989;28;20510;-68
2023/08/31 01:19:50;;;;;;;2.73;2.73;;;11.30;99.90;;;;;;4963875;28;20458;-67
2023/08/31 01:22:25;;;;;;;3.00;3.00;;;11.40;99.90;;;;;;4963636;28;20480;-68
2023/08/31 01:24:54;;;;;;;2.70;2.70;;;11.40;99.90;;;;;;4971830;28;20459;-68
2023/08/31 01:27:22;;;;;;;2.60;2.60;;;11.40;99.90;;;;;;4967322;28;21020;-68
2023/08/31 01:29:49;;;;;;;3.07;3.07;;;11.40;99.90;;;;;;4969556;28;20448;-68
2023/08/31 01:32:16;;;;;;;2.83;2.83;;;11.40;99.90;;;;;;4973719;28;20463;-68
2023/08/31 01:34:43;;;;;;;2.40;2.40;;;11.40;99.90;;;;;;4966729;28;20959;-68
2023/08/31 01:37:17;;;;;;;2.40;2.40;;;11.40;99.90;;;;;;4962781;28;20475;-66
2023/08/31 01:39:50;;;;;;;2.63;2.63;;;11.30;99.90;;;;;;4969351;28;20792;-69
2023/08/31 01:42:19;;;;;;;3.23;3.23;;;11.30;99.90;;;;;;4966262;28;20486;-66
2023/08/31 01:44:49;;;;;;;3.03;3.03;;;11.30;99.90;;;;;;4963260;28;20508;-67
2023/08/31 01:47:19;;;;;;;3.23;3.23;;;11.30;99.90;;;;;;4960509;28;21022;-68
2023/08/31 01:49:46;;;;;;;2.73;2.73;;;11.30;99.90;;;;;;4969108;28;20497;-67
2023/08/31 01:52:12;;;;;;;2.90;2.90;;;11.30;99.90;;;;;;4967539;28;20459;-67
2023/08/31 01:54:39;;;;;;;2.80;2.80;;;11.30;99.90;;;;;;4968130;28;20482;-68
2023/08/31 01:57:07;;;;;;;3.33;3.33;;;11.20;99.90;;;;;;4960924;28;20472;-68
2023/08/31 01:59:36;;;;;;;3.77;3.77;;;11.20;99.90;;;;;;4969390;28;20462;-68
2023/08/31 02:02:03;;;;;;;3.60;3.60;;;11.20;99.90;;;;;;4963871;28;20839;-68
2023/08/31 02:04:30;;;;;;;3.80;3.80;;;11.20;99.90;;;;;;4968900;28;20463;-69
2023/08/31 02:06:57;;;;;;;3.73;3.73;;;11.20;99.90;;;;;;4965288;28;20467;-68
2023/08/31 02:09:24;;;;;;;3.93;3.93;;;11.20;99.90;;;;;;4971749;28;20997;-68
2023/08/31 02:11:51;;;;;;;4.40;4.40;;;11.10;99.90;;;;;;4965047;28;20463;-66
2023/08/31 02:14:18;;;;;;;3.63;3.63;;;11.20;99.90;;;;;;4969037;28;20470;-68
2023/08/31 02:16:46;;;;;;;4.10;4.10;;;11.20;99.90;;;;;;4980102;28;20459;-68
2023/08/31 02:19:14;;;;;;;4.40;4.40;;;11.20;99.90;;;;;;4966087;28;20459;-68
2023/08/31 02:21:42;;;;;;;4.63;4.63;;;11.20;99.90;;;;;;4958115;28;20632;-68
2023/08/31 02:24:08;;;;;;;3.83;3.83;;;11.20;99.90;;;;;;4968737;28;20459;-67
2023/08/31 02:26:38;;;;;;;3.87;3.87;;;11.20;99.90;;;;;;4967434;28;20459;-67
2023/08/31 02:29:05;;;;;;;3.70;3.70;;;11.10;99.90;;;;;;4964189;28;20934;-67
2023/08/31 02:31:32;;;;;;;4.27;4.27;;;11.10;99.90;;;;;;4963574;28;20474;-68
2023/08/31 02:34:01;;;;;;;5.47;5.37;;;11.10;99.90;;;;;;4962276;28;20464;-67
2023/08/31 02:36:28;;;;;;;4.60;4.60;;;11.10;99.90;;;;;;4967722;28;20454;-68
2023/08/31 02:38:55;;;;;;;5.30;5.20;;;11.00;99.90;;;;;;4958427;28;20521;-67
2023/08/31 02:41:22;;;;;;;4.93;4.93;;;11.00;99.90;;;;;;4967880;28;20490;-68
2023/08/31 02:43:52;;;;;;;4.37;4.37;;;11.00;99.90;;;;;;4965155;28;20463;-68
2023/08/31 02:46:19;;;;;;;4.30;4.30;;;11.10;99.90;;;;;;4964078;28;21039;-67
2023/08/31 02:48:47;;;;;;;4.90;4.90;;;11.10;99.90;;;;;;4959983;28;20914;-69
2023/08/31 02:51:15;;;;;;;4.10;4.10;;;11.20;99.90;;;;;;4964561;28;20455;-67
2023/08/31 02:53:42;;;;;;;4.47;4.47;;;11.20;99.90;;;;;;4949631;28;20489;-67
2023/08/31 02:56:09;;;;;;;4.30;4.30;;;11.20;99.90;;;;;;4949148;29;20469;-68
2023/08/31 02:58:36;;;;;;;4.30;4.30;;;11.30;99.90;;;;;;4949314;29;20947;-68
2023/08/31 03:01:11;;;;;;;3.80;3.80;;;11.40;99.90;;;;;;4949608;28;20866;-68
2023/08/31 03:03:38;;;;;;;4.40;4.40;;;11.50;99.90;;;;;;4936705;28;20499;-68
2023/08/31 03:06:08;;;;;;;3.87;3.87;;;11.60;99.90;;;;;;4949229;29;20543;-67
2023/08/31 03:08:36;;;;;;;3.73;3.73;;;11.60;99.90;;;;;;4948223;29;20914;-69
2023/08/31 03:11:05;;;;;;;3.80;3.80;;;11.70;99.90;;;;;;4947761;29;20582;-68
2023/08/31 03:13:32;;;;;;;4.47;4.47;;;11.80;99.90;;;;;;4944527;29;20471;-69
2023/08/31 03:15:59;;;;;;;3.73;3.73;;;11.90;99.90;;;;;;4942191;29;20476;-68
2023/08/31 03:18:27;;;;;;;3.20;3.20;;;11.90;99.90;;;;;;4948795;29;20475;-68
2023/08/31 03:20:55;;;;;;;3.80;3.80;;;11.80;99.90;;;;;;4948203;29;20476;-68
2023/08/31 03:23:23;;;;;;;3.70;3.70;;;11.80;99.90;;;;;;4940271;29;20488;-69
2023/08/31 03:25:53;;;;;;;3.70;3.70;;;11.70;99.90;;;;;;4951144;28;20954;-68
2023/08/31 03:28:22;;;;;;;3.77;3.77;;;11.70;99.90;;;;;;4952166;29;20480;-69
2023/08/31 03:30:56;;;;;;;3.97;3.97;;;11.60;99.90;;;;;;4950211;28;20459;-67
2023/08/31 03:33:24;;;;;;;4.20;4.20;;;11.60;99.90;;;;;;4943723;29;20477;-68
2023/08/31 03:35:51;;;;;;;3.93;3.93;;;11.60;99.90;;;;;;4945482;29;20508;-69
2023/08/31 03:38:19;;;;;;;3.30;3.30;;;11.50;99.90;;;;;;4952847;29;20696;-69
2023/08/31 03:40:58;;;;;;;3.67;3.67;;;11.50;99.90;;;;;;4952448;29;20540;-68
2023/08/31 03:43:26;;;;;;;3.43;3.43;;;11.50;99.90;;;;;;4950740;29;20467;-68
2023/08/31 03:45:56;;;;;;;3.80;3.80;;;11.40;99.90;;;;;;4947046;29;20536;-68
2023/08/31 03:48:24;;;;;;;3.77;3.77;;;11.30;99.90;;;;;;4948996;29;20864;-68
2023/08/31 03:50:51;;;;;;;3.87;3.87;;;11.20;99.90;;;;;;4952068;29;20465;-69
2023/08/31 03:53:20;;;;;;;3.87;3.87;;;11.30;99.90;;;;;;4949548;28;20582;-68
2023/08/31 03:55:47;;;;;;;4.00;4.00;;;11.20;99.90;;;;;;4970839;28;20463;-68
2023/08/31 03:58:15;;;;;;;3.10;3.10;;;11.20;99.90;;;;;;4968386;28;20502;-68
2023/08/31 04:00:42;;;;;;;3.93;3.93;;;11.20;99.90;;;;;;4973558;28;20596;-68
2023/08/31 04:03:11;;;;;;;3.90;3.90;;;11.10;99.90;;;;;;4971079;28;20462;-68
2023/08/31 04:05:37;;;;;;;3.73;3.73;;;11.10;99.90;;;;;;4964363;28;20816;-68
2023/08/31 04:08:05;;;;;;;3.83;3.83;;;11.00;99.90;;;;;;4967328;28;20463;-68
2023/08/31 04:10:32;;;;;;;3.17;3.17;;;11.00;99.90;;;;;;4965816;28;20494;-68
2023/08/31 04:12:59;;;;;;;3.57;3.57;;;10.90;99.90;;;;;;4971233;28;20529;-68
2023/08/31 04:15:27;;;;;;;4.30;4.30;;;10.90;99.90;;;;;;4968355;28;20463;-68
2023/08/31 04:17:54;;;;;;;4.10;4.10;;;10.80;99.90;;;;;;4966574;28;20456;-68
2023/08/31 04:20:21;;;;;;;4.27;4.27;;;10.80;99.90;;;;;;4966615;28;20471;-68
2023/08/31 04:22:48;;;;;;;4.43;4.43;;;10.70;99.90;;;;;;4970805;28;20463;-68
2023/08/31 04:25:15;;;;;;;4.20;4.20;;;10.70;99.90;;;;;;4963665;28;20475;-68
2023/08/31 04:27:45;;;;;;;4.63;4.63;;;10.70;99.90;;;;;;4968746;28;20490;-67
2023/08/31 04:30:12;;;;;;;3.10;3.10;;;10.70;99.90;;;;;;4971907;28;20929;-68
2023/08/31 04:32:40;;;;;;;3.73;3.73;;;10.70;99.90;;;;;;4981164;28;20456;-68
2023/08/31 04:35:09;;;;;;;4.00;4.00;;;10.70;99.90;;;;;;4976321;28;20496;-67
2023/08/31 04:37:36;;;;;;;4.40;4.40;;;10.70;99.90;;;;;;4962524;28;21268;-67
2023/08/31 04:40:04;;;;;;;3.87;3.87;;;10.70;99.90;;;;;;4961516;28;20491;-67
2023/08/31 04:42:31;;;;;;;3.30;3.30;;;10.70;99.90;;;;;;4970579;28;20478;-68
2023/08/31 04:44:58;;;;;;;3.60;3.60;;;10.70;99.90;;;;;;4970674;28;20808;-67
2023/08/31 04:47:26;;;;;;;3.83;3.83;;;10.70;99.90;;;;;;4978255;28;20467;-67
2023/08/31 04:49:53;;;;;;;3.97;3.97;;;10.70;99.90;;;;;;4967550;28;20946;-68
2023/08/31 04:52:20;;;;;;;3.40;3.40;;;10.70;99.90;;;;;;4962434;28;20530;-68
2023/08/31 04:54:47;;;;;;;3.63;3.63;;;10.70;99.90;;;;;;4963166;28;20495;-68
2023/08/31 04:57:14;;;;;;;3.67;3.67;;;10.80;99.90;;;;;;4970382;28;20466;-67
2023/08/31 04:59:40;;;;;;;3.67;3.67;;;10.80;99.90;;;;;;4970784;28;20460;-68
2023/08/31 05:02:07;;;;;;;3.10;3.10;;;10.90;99.90;;;;;;4961019;28;20482;-68
2023/08/31 05:04:33;;;;;;;2.90;2.90;;;10.90;99.90;;;;;;4962013;28;20859;-67
2023/08/31 05:07:03;;;;;;;2.83;2.83;;;10.80;99.90;;;;;;4960310;28;20470;-67
2023/08/31 05:09:32;;;;;;;3.43;3.43;;;10.90;99.90;;;;;;4974673;28;20530;-68
2023/08/31 05:11:59;;;;;;;3.60;3.60;;;10.90;99.90;;;;;;4963729;28;20570;-67
2023/08/31 05:14:26;;;;;;;2.90;2.90;;;10.90;99.90;;;;;;4960755;28;20527;-67
2023/08/31 05:16:54;;;;;;;3.00;3.00;;;11.00;99.90;;;;;;4964954;28;20479;-67
2023/08/31 05:19:21;;;;;;;2.37;2.37;;;11.00;99.90;;;;;;4964765;28;20526;-68
2023/08/31 05:21:47;;;;;;;2.60;2.60;;;11.00;99.90;;;;;;4960123;28;20494;-69
2023/08/31 05:24:16;;;;;;;2.60;2.60;;;11.00;99.90;;;;;;4961249;28;20456;-67
2023/08/31 05:26:42;;;;;;;2.83;2.83;;;11.00;99.90;;;;;;4960413;28;20483;-69
2023/08/31 05:29:10;;;;;;;2.40;2.40;;;11.00;99.90;;;;;;4967353;28;20487;-68
2023/08/31 05:31:37;;;;;;;2.73;2.73;;;11.00;99.90;;;;;;4966812;28;20506;-68
2023/08/31 05:34:04;;;;;;;2.43;2.43;;;11.10;99.90;;;;;;4968331;28;20452;-67
2023/08/31 05:36:30;;;;;;;2.57;2.57;;;11.20;99.90;;;;;;4959519;28;20479;-67
2023/08/31 05:38:57;;;;;;;2.67;2.67;;;11.10;99.90;;;;;;4958672;28;20479;-67
2023/08/31 05:41:26;;;;;;;2.43;2.43;;;11.20;99.90;;;;;;4962922;28;20515;-69
2023/08/31 05:43:54;;;;;;;2.60;2.60;;;11.20;99.90;;;;;;4968475;28;20466;-68
2023/08/31 05:46:21;;;;;;;2.60;2.60;;;11.30;99.90;;;;;;4970706;28;20527;-68
2023/08/31 05:48:48;;;;;;;2.83;2.83;;;11.30;99.90;;;;;;4957630;28;20464;-69
2023/08/31 05:51:15;;;;;;;2.90;2.90;;;11.30;99.90;;;;;;4960475;28;20961;-68
2023/08/31 05:53:41;;;;;;;2.63;2.63;;;11.40;99.90;;;;;;4962644;28;21005;-68
2023/08/31 05:56:08;;;;;;;2.33;2.33;;;11.50;99.90;;;;;;4958096;28;20502;-68
2023/08/31 05:58:38;;;;;;;3.10;3.10;;;11.50;99.90;;;;;;4968464;28;20942;-68
2023/08/31 06:01:05;;;;;;;3.37;3.37;;;11.50;99.90;;;;;;4968696;28;20452;-68
2023/08/31 06:03:32;;;;;;;3.23;3.23;;;11.60;99.90;;;;;;4960519;28;20459;-67
2023/08/31 06:06:00;;;;;;;3.60;3.60;;;11.70;99.90;;;;;;4967659;28;20538;-67
2023/08/31 06:08:27;;;;;;;3.80;3.80;;;11.80;99.90;;;;;;4961551;28;20463;-66
2023/08/31 06:10:54;;;;;;;3.40;3.40;;;11.80;99.90;;;;;;4962214;28;21061;-67
2023/08/31 06:13:21;;;;;;;3.37;3.37;;;11.90;99.90;;;;;;4955963;28;20539;-67
2023/08/31 06:15:49;;;;;;;3.10;3.10;;;11.90;99.90;;;;;;4973733;28;20613;-68
2023/08/31 06:18:15;;;;;;;3.70;3.70;;;12.10;99.90;;;;;;4968730;28;20538;-67
2023/08/31 06:20:43;;;;;;;2.90;2.90;;;12.10;99.90;;;;;;4966347;28;20518;-68
2023/08/31 06:23:11;;;;;;;3.90;3.90;;;12.20;99.90;;;;;;4957707;28;20456;-68
2023/08/31 06:25:38;;;;;;;4.00;4.00;;;12.20;99.90;;;;;;4959479;28;20475;-68
2023/08/31 06:28:08;;;;;;;4.10;4.10;;;12.30;99.90;;;;;;4962465;28;20459;-68
2023/08/31 06:30:36;;;;;;;4.13;4.13;;;12.40;99.90;;;;;;4971640;28;21009;-68
2023/08/31 06:33:04;;;;;;;4.10;4.10;;;12.50;99.90;;;;;;4963756;28;20486;-68
2023/08/31 06:35:32;;;;;;;4.10;4.10;;;12.60;99.90;;;;;;4960437;28;20842;-67
2023/08/31 06:37:59;;;;;;;3.70;3.70;;;12.70;99.90;;;;;;4968833;28;20459;-69
2023/08/31 06:40:26;;;;;;;3.80;3.80;;;12.80;99.90;;;;;;4962374;28;20463;-68
2023/08/31 06:42:53;;;;;;;4.10;4.10;;;12.90;99.90;;;;;;4961246;28;20479;-67
2023/08/31 06:45:20;;;;;;;4.40;4.40;;;13.00;99.90;;;;;;4961947;28;20468;-69
2023/08/31 06:47:47;;;;;;;4.40;4.40;;;13.10;99.90;;;;;;4970684;28;21265;-67
2023/08/31 06:50:16;;;;;;;5.10;5.00;;;13.10;99.90;;;;;;4978361;28;20902;-68
2023/08/31 06:52:46;;;;;;;4.30;4.30;;;13.10;99.90;;;;;;4963804;28;20483;-68
2023/08/31 06:55:13;;;;;;;5.57;5.47;;;13.20;99.90;;;;;;4948121;28;20972;-68
2023/08/31 06:57:41;;;;;;;5.53;5.37;;;13.30;99.90;;;;;;4937748;29;20830;-69
2023/08/31 07:00:09;;;;;;;4.50;4.40;;;13.30;99.90;;;;;;4945824;28;20872;-68
2023/08/31 07:02:40;;;;;;;4.40;4.40;;;13.40;99.90;;;;;;4934782;29;20473;-68
2023/08/31 07:05:07;;;;;;;4.00;4.00;;;13.50;99.90;;;;;;4944972;29;20468;-68
2023/08/31 07:07:36;;;;;;;4.00;4.00;;;13.50;99.90;;;;;;4941412;29;20498;-69
2023/08/31 07:10:03;;;;;;;4.20;4.10;;;13.60;99.90;;;;;;4943738;29;20488;-69
2023/08/31 07:12:30;;;;;;;4.27;4.27;;;13.70;99.90;;;;;;4948487;28;20460;-68
2023/08/31 07:14:57;;;;;;;4.10;4.10;;;13.70;99.90;;;;;;4936610;29;20469;-68
2023/08/31 07:17:24;;;;;;;4.00;4.00;;;13.90;99.90;;;;;;4940347;28;20537;-68
2023/08/31 07:19:50;;;;;;;4.10;4.10;;;14.00;99.90;;;;;;4943603;29;20464;-68
2023/08/31 07:22:17;;;;;;;4.10;4.10;;;14.00;99.90;;;;;;4942860;28;20524;-68
2023/08/31 07:24:46;;;;;;;4.60;4.60;;;14.10;99.90;;;;;;4935452;28;20528;-68
2023/08/31 07:27:13;;;;;;;4.90;4.90;;;14.20;99.90;;;;;;4940981;28;20555;-68
2023/08/31 07:29:41;;;;;;;5.40;5.30;;;14.30;99.90;;;;;;4944010;29;20496;-69
2023/08/31 07:32:08;;;;;;;5.87;5.77;;;14.40;99.90;;;;;;4945040;29;20904;-68
2023/08/31 07:34:36;;;;;;;6.00;5.90;;;14.40;99.90;;;;;;4933627;29;20473;-67
2023/08/31 07:37:03;;;;;;;6.03;5.93;;;14.50;99.90;;;;;;4944636;28;20478;-68
2023/08/31 07:39:30;;;;;;;6.60;6.50;;;14.60;99.90;;;;;;4938492;28;20556;-69
2023/08/31 07:41:59;;;;;;;7.10;7.00;;;14.70;99.90;;;;;;4940781;28;20572;-69
2023/08/31 07:44:26;;;;;;;7.97;7.87;;;14.80;99.90;;;;;;4931841;28;20552;-67
2023/08/31 07:46:55;;;;;;;7.13;7.03;;;14.90;99.90;;;;;;4941218;28;20949;-68
2023/08/31 07:49:22;;;;;;;8.07;7.97;;;15.00;99.90;;;;;;4934265;29;20478;-68
2023/08/31 07:51:48;;;;;;;8.47;8.37;;;15.10;99.90;;;;;;4939216;28;20566;-68
2023/08/31 07:54:21;;;;;;;8.40;8.30;;;15.20;99.90;;;;;;4952095;28;20480;-68
2023/08/31 07:56:48;;;;;;;8.80;8.67;;;15.40;99.90;;;;;;4958050;28;20472;-69
2023/08/31 07:59:17;;;;;;;9.40;9.20;;;15.60;99.90;;;;;;4960312;28;20991;-69
2023/08/31 08:01:43;;;;;;;10.00;9.80;;;15.80;99.90;;;;;;4966009;28;20823;-68
2023/08/31 08:04:11;;;;;;;10.30;10.10;;;16.10;99.90;;;;;;4960851;28;20463;-70
2023/08/31 08:06:38;;;;;;;10.23;10.03;;;16.30;99.90;;;;;;4963367;28;20459;-69
2023/08/31 08:09:06;;;;;;;10.83;10.53;;;16.20;99.90;;;;;;4962684;28;20467;-69
2023/08/31 08:11:33;;;;;;;11.70;11.40;;;16.40;99.90;;;;;;4961757;28;20491;-70
2023/08/31 08:14:00;;;;;;;11.40;11.10;;;16.20;99.90;;;;;;4969361;28;20463;-69
2023/08/31 08:16:30;;;;;;;12.20;11.80;;;16.40;99.90;;;;;;4964162;28;20471;-68
2023/08/31 08:18:56;;;;;;;11.70;11.40;;;16.40;99.90;;;;;;4965751;28;20946;-68
2023/08/31 08:21:23;;;;;;;12.13;11.83;;;16.40;99.90;;;;;;4961975;28;20494;-68
2023/08/31 08:23:52;;;;;;;12.33;12.03;;;16.40;99.90;;;;;;4965051;28;20515;-68
2023/08/31 08:26:19;;;;;;;12.87;12.47;;;16.50;99.90;;;;;;4962004;28;20842;-67
2023/08/31 08:28:46;;;;;;;12.53;12.20;;;16.60;99.90;;;;;;4959798;28;20535;-68
2023/08/31 08:31:13;;;;;;;12.20;11.90;;;16.50;99.90;;;;;;4960741;28;20605;-69
2023/08/31 08:33:43;;;;;;;12.97;12.57;;;16.70;99.90;;;;;;4962628;28;20846;-67
2023/08/31 08:36:10;;;;;;;12.50;12.10;;;16.70;99.90;;;;;;4963010;28;20471;-69
2023/08/31 08:38:37;;;;;;;12.80;12.40;;;16.90;99.90;;;;;;4960488;28;20479;-68
2023/08/31 08:41:07;;;;;;;12.83;12.43;;;17.00;99.90;;;;;;4967377;28;20475;-67
2023/08/31 08:43:36;;;;;;;11.80;11.50;;;17.10;99.90;;;;;;4955877;28;20464;-68
2023/08/31 08:46:06;;;;;;;12.13;11.83;;;17.10;99.90;;;;;;4965986;28;20507;-67
2023/08/31 08:48:35;;;;;;;13.20;12.80;;;17.10;99.90;;;;;;4965184;28;20835;-68
2023/08/31 08:51:07;;;;;;;13.13;12.73;;;17.00;99.90;;;;;;4962604;28;20491;-68
2023/08/31 08:53:35;;;;;;;12.77;12.37;;;17.20;99.90;;;;;;4966388;28;20494;-67
2023/08/31 08:56:02;;;;;;;13.07;12.67;;;17.30;99.90;;;;;;4963179;28;20520;-67
2023/08/31 08:58:28;;;;;;;13.23;12.83;;;17.50;99.90;;;;;;4960627;28;21080;-67
2023/08/31 09:00:57;;;;;;;13.50;13.10;;;17.70;99.90;;;;;;4958685;28;21053;-67
2023/08/31 09:03:24;;;;;;;13.60;13.20;;;17.90;99.90;;;;;;4959945;28;20573;-68
2023/08/31 09:05:51;;;;;;;13.60;13.20;;;18.00;99.90;;;;;;4968037;28;21050;-67
2023/08/31 09:08:27;;;;;;;13.00;12.60;;;18.20;99.90;;;;;;4959463;28;20573;-68
2023/08/31 09:10:58;;;;;;;13.70;13.30;;;18.80;99.90;;;;;;4963641;28;20843;-67
2023/08/31 09:13:28;;;;;;;13.17;12.77;;;19.10;99.90;;;;;;4967432;28;20546;-67
2023/08/31 09:15:55;;;;;;;14.43;13.93;;;19.40;99.90;;;;;;4975347;28;20942;-67
2023/08/31 09:18:25;;;;;;;14.27;13.77;;;19.50;99.90;;;;;;4968239;28;20459;-68
2023/08/31 09:20:53;;;;;;;13.50;13.10;;;19.60;99.90;;;;;;4963383;28;20491;-68
2023/08/31 09:23:22;;;;;;;13.17;12.77;;;20.10;99.90;;;;;;4962932;28;20716;-69
2023/08/31 09:25:52;;;;;;;13.60;13.20;;;20.40;99.90;;;;;;4968093;28;20498;-68
2023/08/31 09:28:21;;;;;;;13.50;13.10;;;20.20;99.90;;;;;;4961304;28;20842;-69
2023/08/31 09:30:50;;;;;;;14.30;13.80;;;20.10;99.90;;;;;;4968518;28;20495;-68
2023/08/31 09:33:20;;;;;;;13.90;13.50;;;20.30;99.90;;;;;;4969420;28;20534;-69
2023/08/31 09:35:53;;;;;;;14.27;13.77;;;20.60;99.90;;;;;;4964541;28;20467;-68
2023/08/31 09:38:22;;;;;;;14.80;14.30;;;20.80;99.90;;;;;;4962217;28;21031;-70
2023/08/31 09:40:49;;;;;;;13.83;13.43;;;20.70;99.90;;;;;;4967456;28;20472;-68
2023/08/31 09:43:23;;;;;;;13.80;13.40;;;20.90;99.90;;;;;;4963208;28;20530;-68
2023/08/31 09:45:50;;;;;;;13.80;13.40;;;20.70;99.90;;;;;;4970868;28;20465;-68
2023/08/31 09:48:18;;;;;;;13.40;13.00;;;20.70;99.90;;;;;;4959406;28;20475;-68
2023/08/31 09:50:46;;;;;;;13.23;12.83;;;20.90;99.90;;;;;;4967533;28;21010;-68
2023/08/31 09:53:16;;;;;;;14.40;13.90;;;21.20;99.90;;;;;;4965477;28;20578;-68
2023/08/31 09:55:47;;;;;;;13.90;13.50;;;22.00;99.90;;;;;;4968263;28;20467;-68
2023/08/31 09:58:18;;;;;;;14.40;13.90;;;22.20;99.90;;;;;;4956511;28;20864;-70
2023/08/31 10:00:46;;;;;;;14.33;13.83;;;22.90;99.90;;;;;;4965443;28;20486;-68
2023/08/31 10:03:15;;;;;;;14.30;13.80;;;23.00;99.90;;;;;;4959903;28;20476;-68
2023/08/31 10:05:43;;;;;;;14.00;13.60;;;22.50;99.90;;;;;;4960530;28;20458;-68
2023/08/31 10:08:11;;;;;;;13.80;13.40;;;22.20;99.90;;;;;;4953408;28;20467;-68
2023/08/31 10:10:39;;;;;;;13.90;13.50;;;21.50;99.90;;;;;;4962084;28;21089;-68
2023/08/31 10:13:08;;;;;;;13.87;13.47;;;21.50;99.90;;;;;;4963454;28;20970;-68
2023/08/31 10:15:37;;;;;;;14.63;14.13;;;21.30;99.90;;;;;;4960515;28;20467;-68
2023/08/31 10:18:05;;;;;;;14.77;14.27;;;20.80;99.90;;;;;;4964103;28;20451;-67
2023/08/31 10:20:33;;;;;;;13.40;13.00;;;21.20;99.90;;;;;;4967486;28;20832;-67
2023/08/31 10:23:04;;;;;;;13.70;13.30;;;21.50;99.90;;;;;;4957370;28;20476;-69
2023/08/31 10:26:01;;;;;;;14.53;14.03;;;21.90;99.90;;;;;;4962290;28;20982;-69
2023/08/31 10:28:30;;;;;;;14.10;13.70;;;22.00;99.90;;;;;;4956952;28;20463;-68
2023/08/31 10:31:04;;;;;;;14.60;14.10;;;21.50;99.90;;;;;;4964595;28;20913;-70
2023/08/31 10:33:33;;;;;;;14.10;13.70;;;22.10;99.90;;;;;;4957065;28;20459;-69
2023/08/31 10:36:00;;;;;;;13.30;12.90;;;22.10;99.90;;;;;;4955889;28;21050;-69
2023/08/31 10:38:30;;;;;;;14.53;14.03;;;22.00;99.90;;;;;;4963713;28;20496;-69
2023/08/31 10:41:18;;;;;;;14.80;14.30;;;22.20;99.90;;;;;;4962276;28;20550;-71
2023/08/31 10:43:49;;;;;;;15.13;14.63;;;22.50;99.90;;;;;;4964305;28;20468;-69
2023/08/31 10:46:30;;;;;;;14.93;14.43;;;22.80;99.90;;;;;;4959361;28;20563;-69
2023/08/31 10:48:58;;;;;;;14.90;14.40;;;22.70;99.90;;;;;;4965608;28;20517;-69
2023/08/31 10:51:27;;;;;;;15.63;15.13;;;22.70;99.90;;;;;;4964774;28;20879;-68
2023/08/31 10:54:07;;;;;;;15.27;14.77;;;22.00;99.90;;;;;;4958508;28;20886;-68
2023/08/31 10:56:34;;;;;;;14.90;14.40;;;21.90;99.90;;;;;;4966868;28;20463;-69
2023/08/31 10:59:03;;;;;;;14.50;14.00;;;21.80;99.90;;;;;;4965474;28;20467;-69
2023/08/31 11:01:59;;;;;;;14.80;14.30;;;22.50;99.90;;;;;;4957914;28;21085;-69
2023/08/31 11:04:28;;;;;;;15.20;14.70;;;23.10;99.90;;;;;;4959363;28;20482;-68
2023/08/31 11:07:15;;;;;;;14.50;14.10;;;23.10;99.90;;;;;;4959735;28;20993;-67
2023/08/31 11:09:42;;;;;;;13.80;13.40;;;23.30;99.90;;;;;;4955901;28;20889;-66
2023/08/31 11:12:10;;;;;;;15.47;14.97;;;22.80;99.90;;;;;;4956942;28;20498;-68
2023/08/31 11:14:39;;;;;;;14.30;13.90;;;22.60;99.90;;;;;;4966937;28;20486;-66
2023/08/31 11:17:07;;;;;;;14.20;13.70;;;22.70;99.90;;;;;;4962638;28;20495;-67
2023/08/31 11:19:34;;;;;;;14.07;13.67;;;23.40;99.90;;;;;;4952377;28;20704;-69
2023/08/31 11:22:04;;;;;;;15.10;14.60;;;24.10;99.90;;;;;;4953608;28;20483;-67
2023/08/31 11:24:32;;;;;;;15.60;15.10;;;24.00;99.90;;;;;;4955443;28;20467;-66
2023/08/31 11:27:03;;;;;;;14.60;14.20;;;24.10;99.90;;;;;;4959420;28;20945;-66
2023/08/31 11:29:30;;;;;;;14.30;13.90;;;23.90;99.90;;;;;;4965746;28;20461;-67
2023/08/31 11:32:00;;;;;;;14.10;13.70;;;24.20;99.90;;;;;;4961060;28;20553;-66
2023/08/31 11:34:26;;;;;;;14.37;13.97;;;24.80;99.90;;;;;;4964409;28;20472;-67
2023/08/31 11:36:55;;;;;;;14.07;13.67;;;24.80;99.90;;;;;;4967505;28;20463;-67
2023/08/31 11:39:23;;;;;;;14.93;14.43;;;25.40;99.90;;;;;;4956987;28;21037;-66
2023/08/31 11:41:51;;;;;;;15.27;14.77;;;25.30;99.90;;;;;;4967026;28;20471;-67
2023/08/31 11:44:18;;;;;;;14.60;14.20;;;25.00;99.90;;;;;;4962875;28;21063;-67
2023/08/31 11:46:50;;;;;;;13.90;13.50;;;24.80;99.90;;;;;;4964330;28;20462;-67
2023/08/31 11:49:19;;;;;;;14.50;14.10;;;24.20;99.90;;;;;;4964105;28;20468;-66
2023/08/31 11:51:48;;;;;;;14.10;13.70;;;24.20;99.90;;;;;;4968709;28;20941;-66
2023/08/31 11:54:16;;;;;;;14.17;13.77;;;24.60;99.90;;;;;;4966895;28;20491;-67
2023/08/31 11:56:46;;;;;;;15.20;14.70;;;25.00;99.90;;;;;;4970368;28;20981;-70
2023/08/31 11:59:15;;;;;;;13.90;13.50;;;25.40;99.90;;;;;;4971864;28;20455;-67
2023/08/31 12:01:44;;;;;;;13.93;13.53;;;26.10;99.90;;;;;;4964347;28;21021;-67
2023/08/31 12:04:13;;;;;;;14.83;14.33;;;26.30;99.90;;;;;;4963968;28;20514;-67
2023/08/31 12:06:41;;;;;;;15.23;14.73;;;26.50;99.90;;;;;;4965741;28;20478;-67
2023/08/31 12:09:08;;;;;;;14.20;13.80;;;26.00;99.90;;;;;;4968148;28;21049;-66
2023/08/31 12:11:35;;;;;;;14.40;14.00;;;25.30;99.90;;;;;;4969854;28;20502;-67
2023/08/31 12:14:03;;;;;;;14.50;14.07;;;25.70;99.90;;;;;;4967268;28;21120;-67
2023/08/31 12:16:36;;;;;;;13.60;13.20;;;25.50;99.90;;;;;;4974219;28;20459;-67
2023/08/31 12:19:04;;;;;;;14.37;13.97;;;25.60;99.90;;;;;;4961900;28;20474;-67
2023/08/31 12:21:32;;;;;;;14.53;14.13;;;25.70;99.90;;;;;;4969746;28;20476;-68
2023/08/31 12:24:00;;;;;;;14.40;14.00;;;24.70;99.90;;;;;;4959881;28;20461;-68
2023/08/31 12:26:27;;;;;;;14.47;14.07;;;24.10;99.90;;;;;;4961987;28;20463;-67
2023/08/31 12:28:54;;;;;;;14.03;13.63;;;24.40;99.90;;;;;;4971249;28;20939;-68
2023/08/31 12:31:23;;;;;;;14.13;13.73;;;24.40;99.90;;;;;;4971338;28;20483;-69
2023/08/31 12:33:50;;;;;;;13.97;13.57;;;24.30;99.90;;;;;;4970078;28;20562;-68
2023/08/31 12:36:16;;;;;;;14.07;13.67;;;24.20;99.90;;;;;;4960855;28;20486;-67
2023/08/31 12:38:43;;;;;;;13.30;12.90;;;24.40;99.90;;;;;;4956706;28;20478;-68
2023/08/31 12:41:13;;;;;;;13.43;13.03;;;24.20;99.90;;;;;;4964323;28;20459;-69
2023/08/31 12:43:39;;;;;;;13.80;13.40;;;24.40;99.90;;;;;;4969747;28;20460;-69
2023/08/31 12:46:07;;;;;;;13.20;12.80;;;24.30;99.90;;;;;;4974925;28;20482;-67